Site contains unofficial IBTrACS data. Visit the IBTrACS Website to access archived data.

1930 NOT_NAMED (1930219N20144)


IBTrACS version v04r00. Visit IBTrACS website for data access.
Please direct all questions to the IBTrACS Q and A forum

Storm track - Intensity - Wind Radii - Intensity Data - Source Data - All data

Summary Information

Storm ID 1930219N20144
Start Aug 6 22Z
End Aug 11 22Z
ATCF IDs
Track status Best track data.

Storm track plot

Map of storm track

Intensity plots

No Intensity information for this storm


Radial wind information

No radial wind information for this storm


Position and Intensity Table

BASIN ISO_TIME_________ NATURE LAT LON
degrees north degrees east
WP 1930-08-06 22:00:00 NR 19.70 144.20
WP 1930-08-07 00:00:00 NR 19.91 143.96
WP 03:00:00 NR 20.21 143.61
WP 06:00:00 NR 20.49 143.28
WP 09:00:00 NR 20.73 142.99
WP 10:00:00 NR 20.80 142.90
WP 12:00:00 NR 20.92 142.74
WP 15:00:00 NR 21.08 142.51
WP 18:00:00 NR 21.26 142.24
WP 21:00:00 NR 21.50 141.86
WP 22:00:00 NR 21.60 141.70
WP 1930-08-08 00:00:00 NR 21.86 141.31
WP 03:00:00 NR 22.32 140.61
WP 06:00:00 NR 22.83 139.80
WP 09:00:00 NR 23.34 138.91
WP 10:00:00 NR 23.50 138.60
WP 12:00:00 NR 23.81 137.94
WP 15:00:00 NR 24.27 136.90
WP 18:00:00 NR 24.67 135.88
WP 21:00:00 NR 25.01 134.97
WP 22:00:00 NR 25.10 134.70
WP 1930-08-09 00:00:00 NR 25.25 134.28
WP 03:00:00 NR 25.41 133.77
WP 06:00:00 NR 25.51 133.38
WP 09:00:00 NR 25.58 133.02
WP 10:00:00 NR 25.60 132.90
WP 12:00:00 NR 25.66 132.60
WP 15:00:00 NR 25.72 132.14
WP 18:00:00 NR 25.77 131.71
WP 21:00:00 NR 25.79 131.32
WP 22:00:00 NR 25.80 131.20
WP 1930-08-10 00:00:00 NR 25.80 130.98
WP 03:00:00 NR 25.80 130.68
WP 06:00:00 NR 25.79 130.42
WP 09:00:00 NR 25.79 130.18
WP 10:00:00 NR 25.80 130.10
WP 12:00:00 NR 25.81 129.90
WP 15:00:00 NR 25.85 129.62
WP 18:00:00 NR 25.92 129.39
WP 21:00:00 NR 26.04 129.23
WP 22:00:00 NR 26.10 129.20
WP 1930-08-11 00:00:00 NR 26.24 129.19
WP 03:00:00 NR 26.50 129.26
WP 06:00:00 NR 26.80 129.39
WP 09:00:00 NR 27.10 129.55
WP 10:00:00 NR 27.20 129.60
WP 12:00:00 NR 27.39 129.70
WP 15:00:00 NR 27.65 129.83
WP 18:00:00 NR 27.89 129.95
WP 21:00:00 NR 28.12 130.06
WP 22:00:00 NR 28.20 130.10

Source Information

Agency Information
USA
TOKYO
CMA
HKO
NEWDELHI
REUNION
BOM
NADI
WELLINGTON
DS824
TD9636 cons_worldwide_trop_cyclone_18710101-19891231-003:Line=8637
TD9635
NEUMANN
MLC

All available IBTrACS Data

SEASON BASIN SUBBASIN ISO_TIME_________ NATURE LAT LON DIST2LAND LANDFALL IFLAG USA SSHS TD9636 LAT TD9636 LON TD9636 STAGE STORM SPEED STORM DIR
Year degrees north degrees east km km 1 degrees north degrees east kts degrees
1930 WP MM 1930-08-06 22:00:00 NR 19.70 144.20 1741 1711 __________O___ -1 19.70 144.20 7 9 313
1930 WP MM 1930-08-07 00:00:00 NR 19.91 143.96 1711 1663 __________P___ -1 19.91 143.96 7 9 313
1930 WP MM 03:00:00 NR 20.21 143.61 1663 1619 __________P___ -1 20.21 143.61 7 9 312
1930 WP MM 06:00:00 NR 20.49 143.28 1619 1585 __________P___ -1 20.49 143.28 7 8 312
1930 WP MM 09:00:00 NR 20.73 142.99 1585 1571 __________P___ -1 20.73 142.99 7 7 311
1930 WP MM 10:00:00 NR 20.80 142.90 1571 1552 __________O___ -1 20.80 142.90 7 6 310
1930 WP MM 12:00:00 NR 20.92 142.74 1552 1523 __________P___ -1 20.92 142.74 7 6 308
1930 WP MM 15:00:00 NR 21.08 142.51 1523 1490 __________P___ -1 21.08 142.51 7 6 306
1930 WP MM 18:00:00 NR 21.26 142.24 1490 1457 __________P___ -1 21.26 142.24 7 7 304
1930 WP MM 21:00:00 NR 21.50 141.86 1457 1439 __________P___ -1 21.50 141.86 7 9 304
1930 WP MM 22:00:00 NR 21.60 141.70 1439 1392 __________O___ -1 21.60 141.70 7 13 306
1930 WP MM 1930-08-08 00:00:00 NR 21.86 141.31 1392 1325 __________P___ -1 21.86 141.31 7 15 306
1930 WP MM 03:00:00 NR 22.32 140.61 1325 1246 __________P___ -1 22.32 140.61 7 17 305
1930 WP MM 06:00:00 NR 22.83 139.80 1246 1167 __________P___ -1 22.83 139.80 7 19 303
1930 WP MM 09:00:00 NR 23.34 138.91 1167 1137 __________P___ -1 23.34 138.91 7 19 301
1930 WP MM 10:00:00 NR 23.50 138.60 1131 1062 __________O___ -1 23.50 138.60 7 20 298
1930 WP MM 12:00:00 NR 23.81 137.94 1062 958 __________P___ -1 23.81 137.94 7 21 296
1930 WP MM 15:00:00 NR 24.27 136.90 958 868 __________P___ -1 24.27 136.90 7 21 295
1930 WP MM 18:00:00 NR 24.67 135.88 868 791 __________P___ -1 24.67 135.88 7 19 293
1930 WP MM 21:00:00 NR 25.01 134.97 791 766 __________P___ -1 25.01 134.97 7 17 292
1930 WP MM 22:00:00 NR 25.10 134.70 766 727 __________O___ -1 25.10 134.70 3 13 291
1930 WP MM 1930-08-09 00:00:00 NR 25.25 134.28 727 694 __________P___ -1 25.25 134.28 3 11 290
1930 WP MM 03:00:00 NR 25.41 133.77 694 668 __________P___ -1 25.41 133.77 3 9 288
1930 WP MM 06:00:00 NR 25.51 133.38 668 643 __________P___ -1 25.51 133.38 3 7 284
1930 WP MM 09:00:00 NR 25.58 133.02 643 640 __________P___ -1 25.58 133.02 3 7 281
1930 WP MM 10:00:00 NR 25.60 132.90 640 620 __________O___ -1 25.60 132.90 4 8 281
1930 WP MM 12:00:00 NR 25.66 132.60 620 607 __________P___ -1 25.66 132.60 4 8 280
1930 WP MM 15:00:00 NR 25.72 132.14 607 588 __________P___ -1 25.72 132.14 4 8 278
1930 WP MM 18:00:00 NR 25.77 131.71 588 583 __________P___ -1 25.77 131.71 4 7 276
1930 WP MM 21:00:00 NR 25.79 131.32 583 582 __________P___ -1 25.79 131.32 4 7 274
1930 WP MM 22:00:00 NR 25.80 131.20 582 581 __________O___ -1 25.80 131.20 4 6 272
1930 WP MM 1930-08-10 00:00:00 NR 25.80 130.98 581 580 __________P___ -1 25.80 130.98 4 6 269
1930 WP MM 03:00:00 NR 25.80 130.68 580 580 __________P___ -1 25.80 130.68 4 5 268
1930 WP MM 06:00:00 NR 25.79 130.42 581 581 __________P___ -1 25.79 130.42 4 5 270
1930 WP MM 09:00:00 NR 25.79 130.18 582 582 __________P___ -1 25.79 130.18 4 4 273
1930 WP MM 10:00:00 NR 25.80 130.10 583 583 __________O___ -1 25.80 130.10 4 5 275
1930 WP MM 12:00:00 NR 25.81 129.90 585 585 __________P___ -1 25.81 129.90 4 5 276
1930 WP MM 15:00:00 NR 25.85 129.62 590 579 __________P___ -1 25.85 129.62 4 5 283
1930 WP MM 18:00:00 NR 25.92 129.39 583 574 __________P___ -1 25.92 129.39 4 4 299
1930 WP MM 21:00:00 NR 26.04 129.23 577 566 __________P___ -1 26.04 129.23 4 4 317
1930 WP MM 22:00:00 NR 26.10 129.20 566 555 __________O___ -1 26.10 129.20 4 4 351
1930 WP MM 1930-08-11 00:00:00 NR 26.24 129.19 555 520 __________P___ -1 26.24 129.19 4 5 8
1930 WP MM 03:00:00 NR 26.50 129.26 520 485 __________P___ -1 26.50 129.26 4 6 18
1930 WP MM 06:00:00 NR 26.80 129.39 485 450 __________P___ -1 26.80 129.39 4 7 23
1930 WP MM 09:00:00 NR 27.10 129.55 450 437 __________P___ -1 27.10 129.55 4 7 25
1930 WP MM 10:00:00 NR 27.20 129.60 437 413 __________O___ -1 27.20 129.60 4 6 26
1930 WP MM 12:00:00 NR 27.39 129.70 413 389 __________P___ -1 27.39 129.70 4 6 25
1930 WP MM 15:00:00 NR 27.65 129.83 389 352 __________P___ -1 27.65 129.83 4 6 24
1930 WP MM 18:00:00 NR 27.89 129.95 352 328 __________P___ -1 27.89 129.95 4 5 24
1930 WP MM 21:00:00 NR 28.12 130.06 328 317 __________P___ -1 28.12 130.06 4 5 23
1930 WP MM 22:00:00 NR 28.20 130.10 317 __________O___ -1 28.20 130.10 4 5 30